Time;durP1;ratioP1;P1;durP2;ratioP2;P2;SDS_P1;SDS_P2;PMS_P1;PMS_P2;Temp;Humidity;BMP_temperature;BMP_pressure;BME280_temperature;BME280_humidity;BME280_pressure;Samples;Min_cycle;Max_cycle;Signal;HPM_P1;HPM_P2
2023/08/19 00:01:39;;;;;;;23.33;21.05;;;;;;;21.98;100.00;101097.16;5029919;28;20116;-61
2023/08/19 00:04:08;;;;;;;24.52;21.95;;;;;;;21.95;100.00;101090.31;5031169;28;20038;-61
2023/08/19 00:06:39;;;;;;;24.38;21.88;;;;;;;21.97;100.00;101083.94;5031147;28;20377;-61
2023/08/19 00:09:09;;;;;;;25.23;22.52;;;;;;;21.95;100.00;101079.59;5028504;28;20072;-61
2023/08/19 00:11:39;;;;;;;24.40;22.00;;;;;;;21.93;100.00;101091.47;5026759;28;20046;-61
2023/08/19 00:14:08;;;;;;;25.38;22.77;;;;;;;21.93;100.00;101091.47;5030350;28;20053;-61
2023/08/19 00:16:36;;;;;;;22.23;20.05;;;;;;;21.88;100.00;101088.47;5027304;28;20049;-61
2023/08/19 00:19:05;;;;;;;24.75;22.25;;;;;;;21.88;100.00;101096.50;5028935;28;20504;-60
2023/08/19 00:21:33;;;;;;;24.10;21.80;;;;;;;21.87;100.00;101092.13;5028999;28;20064;-61
2023/08/19 00:24:03;;;;;;;23.40;21.10;;;;;;;21.84;100.00;101093.34;5026441;28;20622;-62
2023/08/19 00:26:31;;;;;;;22.70;20.17;;;;;;;21.85;100.00;101088.81;5032029;28;20557;-61
2023/08/19 00:28:59;;;;;;;23.88;21.38;;;;;;;21.82;100.00;101089.16;5031513;28;20069;-61
2023/08/19 00:31:27;;;;;;;23.17;20.67;;;;;;;21.83;100.00;101085.44;5031924;28;20051;-61
2023/08/19 00:33:55;;;;;;;23.05;20.75;;;;;;;21.77;100.00;101085.13;5032656;28;20048;-55
2023/08/19 00:36:25;;;;;;;23.83;21.42;;;;;;;21.77;100.00;101084.28;5031583;28;20057;-54
2023/08/19 00:38:56;;;;;;;23.67;21.33;;;;;;;21.72;100.00;101079.44;5033532;28;20099;-61
2023/08/19 00:41:25;;;;;;;24.52;22.13;;;;;;;21.73;100.00;101082.94;5034563;28;20441;-61
2023/08/19 00:43:55;;;;;;;24.77;22.27;;;;;;;21.71;100.00;101076.94;5034509;28;20049;-61
2023/08/19 00:46:26;;;;;;;23.95;21.58;;;;;;;21.69;100.00;101071.75;5034454;28;20041;-61
2023/08/19 00:48:54;;;;;;;24.77;22.17;;;;;;;21.67;100.00;101081.78;5034245;28;20049;-55
2023/08/19 00:51:23;;;;;;;25.55;22.98;;;;;;;21.63;100.00;101079.63;5030830;28;20069;-55
2023/08/19 00:53:51;;;;;;;23.52;21.17;;;;;;;21.60;100.00;101080.78;5030311;28;20103;-62
2023/08/19 00:56:19;;;;;;;24.00;21.63;;;;;;;21.59;100.00;101079.94;5030014;28;20053;-62
2023/08/19 00:58:49;;;;;;;23.65;21.33;;;;;;;21.58;100.00;101080.09;5030696;28;20056;-56
2023/08/19 01:01:18;;;;;;;23.38;21.17;;;;;;;21.56;100.00;101084.78;5031240;28;20037;-53
2023/08/19 01:03:46;;;;;;;25.27;22.67;;;;;;;21.52;100.00;101078.91;5033024;28;20508;-55
2023/08/19 01:06:25;;;;;;;26.10;23.30;;;;;;;21.52;100.00;101075.41;5033660;28;20063;-55
2023/08/19 01:09:03;;;;;;;25.05;22.52;;;;;;;21.48;100.00;101074.88;5032797;28;20140;-55
2023/08/19 01:11:52;;;;;;;25.83;23.13;;;;;;;21.45;100.00;101075.22;5033770;28;20042;-55
2023/08/19 01:14:35;;;;;;;27.10;24.13;;;;;;;21.41;100.00;101068.53;5034170;28;20531;-53
2023/08/19 01:17:05;;;;;;;27.00;24.33;;;;;;;21.41;100.00;101065.84;5032686;28;20111;-55
2023/08/19 01:19:34;;;;;;;27.05;24.33;;;;;;;21.34;100.00;101070.22;5033564;28;20056;-55
2023/08/19 01:22:04;;;;;;;27.17;24.50;;;;;;;21.33;100.00;101072.03;5033409;28;20101;-62
2023/08/19 01:24:37;;;;;;;26.67;23.98;;;;;;;21.31;100.00;101070.50;5029269;28;20512;-61
2023/08/19 01:27:06;;;;;;;27.42;24.73;;;;;;;21.30;100.00;101072.38;5028350;28;20449;-61
2023/08/19 01:29:34;;;;;;;25.95;23.40;;;;;;;21.30;100.00;101071.50;5032021;28;20077;-55
2023/08/19 01:32:03;;;;;;;26.92;24.25;;;;;;;21.32;100.00;101070.34;5032955;28;20132;-55
2023/08/19 01:34:31;;;;;;;26.08;23.48;;;;;;;21.30;100.00;101080.38;5033379;28;20056;-61
2023/08/19 01:37:07;;;;;;;26.00;23.33;;;;;;;21.33;100.00;101080.06;5033117;28;20049;-62
2023/08/19 01:39:38;;;;;;;26.23;23.63;;;;;;;21.29;100.00;101070.69;5033201;28;20124;-62
2023/08/19 01:42:07;;;;;;;26.52;23.98;;;;;;;21.32;100.00;101073.03;5033170;28;20489;-62
2023/08/19 01:44:37;;;;;;;26.63;23.83;;;;;;;21.27;100.00;101070.03;5033237;28;20049;-62
2023/08/19 01:47:16;;;;;;;25.77;23.17;;;;;;;21.24;100.00;101056.97;5033306;28;20566;-61
2023/08/19 01:49:44;;;;;;;25.08;22.65;;;;;;;21.22;100.00;101056.31;5029952;28;20092;-55
2023/08/19 01:52:13;;;;;;;26.15;23.35;;;;;;;21.21;100.00;101055.44;5030202;28;20588;-62
2023/08/19 01:54:43;;;;;;;27.15;24.45;;;;;;;21.18;100.00;101054.97;5031577;28;20447;-62
2023/08/19 01:57:11;;;;;;;24.65;22.08;;;;;;;21.16;100.00;101052.47;5029773;28;20401;-55
2023/08/19 01:59:39;;;;;;;26.27;23.75;;;;;;;21.19;100.00;101062.81;5029310;28;20052;-55
2023/08/19 02:02:07;;;;;;;24.13;21.63;;;;;;;21.13;100.00;101058.13;5030928;28;20042;-55
2023/08/19 02:04:35;;;;;;;26.20;23.70;;;;;;;21.16;100.00;101048.94;5032833;28;20050;-54
2023/08/19 02:07:03;;;;;;;25.58;22.85;;;;;;;21.13;100.00;101046.59;5032078;28;20143;-55
2023/08/19 02:09:31;;;;;;;26.85;24.02;;;;;;;21.08;100.00;101034.56;5032405;28;20480;-56
2023/08/19 02:12:02;;;;;;;26.63;23.80;;;;;;;21.08;100.00;101034.56;5032585;28;20042;-55
2023/08/19 02:14:30;;;;;;;26.83;23.95;;;;;;;21.07;100.00;101032.06;5032730;28;20084;-55
2023/08/19 02:16:59;;;;;;;26.13;23.50;;;;;;;21.05;100.00;101034.03;5032735;28;20513;-55
2023/08/19 02:19:27;;;;;;;26.33;23.67;;;;;;;21.06;100.00;101031.19;5032917;28;20041;-53
2023/08/19 02:21:57;;;;;;;27.63;24.77;;;;;;;21.04;100.00;101027.03;5032954;28;20052;-54
2023/08/19 02:24:26;;;;;;;30.67;26.05;;;;;;;21.02;100.00;101024.50;5032682;28;20124;-54
2023/08/19 02:26:56;;;;;;;26.23;23.63;;;;;;;21.03;100.00;101020.84;5032625;28;20500;-54
2023/08/19 02:29:26;;;;;;;26.48;23.75;;;;;;;21.02;100.00;101024.50;5031181;28;20507;-53
2023/08/19 02:31:56;;;;;;;27.15;24.38;;;;;;;21.03;100.00;101028.03;5032154;28;20510;-56
2023/08/19 02:34:25;;;;;;;26.05;23.52;;;;;;;21.03;100.00;101017.34;5032381;28;20049;-61
2023/08/19 02:36:53;;;;;;;27.85;25.00;;;;;;;21.05;100.00;101007.31;5032348;28;20045;-55
2023/08/19 02:39:21;;;;;;;26.60;23.92;;;;;;;21.03;100.00;101004.78;5028838;28;20510;-62
2023/08/19 02:41:51;;;;;;;28.58;25.80;;;;;;;21.00;100.00;100999.78;5028742;28;20043;-61
2023/08/19 02:44:19;;;;;;;27.85;24.98;;;;;;;20.93;100.00;101007.63;5031979;28;20120;-62
2023/08/19 02:46:52;;;;;;;28.23;25.27;;;;;;;20.96;100.00;101003.78;5032013;28;20049;-55
2023/08/19 02:49:20;;;;;;;26.88;24.13;;;;;;;20.99;100.00;101003.47;5029663;28;20111;-61
2023/08/19 02:51:50;;;;;;;27.52;24.30;;;;;;;21.02;100.00;101008.47;5029493;28;20121;-61
2023/08/19 02:54:18;;;;;;;27.05;24.38;;;;;;;21.02;100.00;101007.63;5026153;28;20076;-62
2023/08/19 02:56:47;;;;;;;27.30;24.42;;;;;;;21.04;100.00;101009.16;5028104;28;20063;-62
2023/08/19 02:59:15;;;;;;;27.55;24.65;;;;;;;21.04;100.00;101011.81;5028945;28;20049;-55
2023/08/19 03:01:43;;;;;;;26.65;23.95;;;;;;;21.05;100.00;101018.84;5029913;28;20044;-56
2023/08/19 03:04:13;;;;;;;26.25;23.67;;;;;;;21.08;100.00;101009.66;5031665;28;20045;-55
2023/08/19 03:06:41;;;;;;;26.85;24.15;;;;;;;21.08;100.00;101013.16;5031466;28;20077;-56
2023/08/19 03:09:09;;;;;;;27.05;24.20;;;;;;;21.09;100.00;101014.00;5031624;28;20060;-62
2023/08/19 03:11:39;;;;;;;28.27;24.60;;;;;;;21.08;100.00;101009.66;5031575;28;20103;-62
2023/08/19 03:14:07;;;;;;;26.40;23.77;;;;;;;21.09;100.00;101017.53;5030415;28;20091;-62
2023/08/19 03:16:36;;;;;;;27.00;24.23;;;;;;;21.09;100.00;101009.50;5028037;28;20045;-54
2023/08/19 03:19:04;;;;;;;27.17;24.48;;;;;;;21.11;100.00;101006.66;5030355;28;20057;-55
2023/08/19 03:21:34;;;;;;;27.85;25.05;;;;;;;21.10;100.00;101005.84;5031389;28;20128;-55
2023/08/19 03:24:02;;;;;;;27.42;24.60;;;;;;;21.05;100.00;101000.13;5029974;28;20076;-55
2023/08/19 03:26:30;;;;;;;28.58;25.63;;;;;;;21.07;100.00;100994.63;5031489;28;20044;-53
2023/08/19 03:28:58;;;;;;;27.35;24.45;;;;;;;21.09;100.00;100998.81;5031486;28;20405;-62
2023/08/19 03:31:26;;;;;;;26.15;23.58;;;;;;;21.12;100.00;100994.97;5031151;28;20059;-55
2023/08/19 03:33:54;;;;;;;26.23;23.58;;;;;;;21.13;100.00;101001.13;5031039;28;20230;-55
2023/08/19 03:36:22;;;;;;;26.60;24.00;;;;;;;21.14;100.00;100995.63;5030167;28;20041;-55
2023/08/19 03:38:52;;;;;;;27.90;24.95;;;;;;;21.14;100.00;100998.28;5031317;28;20091;-54
2023/08/19 03:41:20;;;;;;;27.88;25.15;;;;;;;21.17;100.00;100992.59;5030040;28;20412;-55
2023/08/19 03:43:48;;;;;;;27.77;24.98;;;;;;;21.17;100.00;100991.78;5031315;28;20045;-56
2023/08/19 03:46:16;;;;;;;27.83;24.73;;;;;;;21.16;100.00;100995.44;5031416;28;20052;-55
2023/08/19 03:48:48;;;;;;;25.55;23.00;;;;;;;21.15;100.00;100999.16;5031278;28;20413;-55
2023/08/19 03:51:16;;;;;;;25.60;22.98;;;;;;;21.16;100.00;101003.47;5031204;28;20051;-56
2023/08/19 03:53:44;;;;;;;25.98;23.05;;;;;;;21.16;100.00;101008.81;5031087;28;20057;-55
2023/08/19 03:56:14;;;;;;;24.70;22.27;;;;;;;21.16;100.00;101015.03;5031167;28;20069;-55
2023/08/19 03:58:42;;;;;;;25.92;23.27;;;;;;;21.17;100.00;101011.31;5031170;28;20450;-55
2023/08/19 04:01:10;;;;;;;24.50;22.05;;;;;;;21.16;100.00;101008.81;5032815;28;20552;-56
2023/08/19 04:03:38;;;;;;;25.40;22.65;;;;;;;21.19;100.00;101004.00;5035011;28;20074;-56
2023/08/19 04:06:06;;;;;;;25.63;22.92;;;;;;;21.17;100.00;100999.81;5034897;28;20136;-55
2023/08/19 04:08:34;;;;;;;26.13;23.40;;;;;;;21.14;100.00;100997.47;5035053;28;20092;-55
2023/08/19 04:11:06;;;;;;;26.52;23.83;;;;;;;21.17;100.00;100992.59;5033839;28;20095;-57
2023/08/19 04:13:35;;;;;;;24.55;22.05;;;;;;;21.18;100.00;100998.81;5033879;28;20095;-55
2023/08/19 04:16:05;;;;;;;25.13;22.45;;;;;;;21.18;100.00;100996.13;5033814;28;20412;-56
2023/08/19 04:18:33;;;;;;;25.15;21.95;;;;;;;21.17;100.00;100994.47;5034742;28;20050;-55
2023/08/19 04:21:05;;;;;;;23.33;20.80;;;;;;;21.18;100.00;100993.47;5034849;28;20061;-56
2023/08/19 04:23:36;;;;;;;23.75;20.90;;;;;;;21.20;100.00;100989.63;5034389;28;20037;-55
2023/08/19 04:26:06;;;;;;;24.38;20.20;;;;;;;21.20;100.00;100980.75;5034644;28;20049;-55
2023/08/19 04:28:35;;;;;;;23.73;20.48;;;;;;;21.19;100.00;100985.28;5034556;28;20063;-55
2023/08/19 04:31:05;;;;;;;21.25;18.98;;;;;;;21.21;100.00;100993.13;5034478;28;20045;-55
2023/08/19 04:33:34;;;;;;;21.65;19.35;;;;;;;21.17;100.00;100994.47;5034382;28;20039;-55
2023/08/19 04:36:03;;;;;;;21.55;19.30;;;;;;;21.16;100.00;100988.28;5034716;28;20504;-55
2023/08/19 04:38:32;;;;;;;20.33;18.05;;;;;;;21.18;100.00;100991.63;5031502;28;20045;-62
2023/08/19 04:41:00;;;;;;;20.40;17.25;;;;;;;21.18;100.00;100994.28;5030355;28;20051;-62
2023/08/19 04:43:29;;;;;;;21.33;17.50;;;;;;;21.19;100.00;100989.78;5030699;28;20100;-62
2023/08/19 04:45:58;;;;;;;19.98;17.80;;;;;;;21.19;100.00;100992.47;5031001;28;20058;-62
2023/08/19 04:48:26;;;;;;;19.05;17.05;;;;;;;21.20;100.00;100996.78;5032779;28;20127;-62
2023/08/19 04:50:55;;;;;;;19.77;16.85;;;;;;;21.22;100.00;100995.63;5034304;28;20038;-62
2023/08/19 04:53:23;;;;;;;18.13;16.20;;;;;;;21.21;100.00;100988.59;5033951;28;20087;-55
2023/08/19 04:55:59;;;;;;;19.45;17.23;;;;;;;21.23;100.00;100993.81;5034226;28;20061;-61
2023/08/19 04:58:27;;;;;;;19.83;16.17;;;;;;;21.23;100.00;100989.28;5034335;28;20124;-56
2023/08/19 05:00:55;;;;;;;22.15;16.40;;;;;;;21.23;100.00;100989.28;5034221;28;20442;-55
2023/08/19 05:03:25;;;;;;;18.15;15.85;;;;;;;21.24;100.00;100990.97;5034058;28;20505;-55
2023/08/19 05:05:53;;;;;;;19.85;16.45;;;;;;;21.23;100.00;100993.81;5033717;28;20080;-55
2023/08/19 05:08:21;;;;;;;18.73;16.70;;;;;;;21.22;100.00;101003.66;5034273;28;20120;-55
2023/08/19 05:10:50;;;;;;;18.67;15.93;;;;;;;21.24;100.00;101015.03;5034321;28;20404;-55
2023/08/19 05:13:18;;;;;;;18.65;14.77;;;;;;;21.26;100.00;100998.81;5033255;28;20565;-54
2023/08/19 05:15:46;;;;;;;16.63;14.55;;;;;;;21.28;100.00;101000.31;5034040;28;20539;-53
2023/08/19 05:18:15;;;;;;;16.63;14.25;;;;;;;21.28;100.00;101002.16;5033808;28;20069;-61
2023/08/19 05:20:45;;;;;;;19.10;15.35;;;;;;;21.26;100.00;101017.53;5031332;28;20493;-62
2023/08/19 05:23:13;;;;;;;17.42;14.10;;;;;;;21.30;100.00;101023.38;5031397;28;20519;-62
2023/08/19 05:25:41;;;;;;;19.88;14.90;;;;;;;21.27;100.00;101027.25;5028186;28;20060;-62
2023/08/19 05:28:09;;;;;;;17.25;14.60;;;;;;;21.33;100.00;101028.41;5032196;28;20042;-62
2023/08/19 05:30:38;;;;;;;17.80;13.50;;;;;;;21.34;100.00;101028.25;5033499;28;20058;-61
2023/08/19 05:33:06;;;;;;;17.17;13.32;;;;;;;21.36;100.00;101036.91;5030411;28;20489;-62
2023/08/19 05:35:34;;;;;;;17.00;13.10;;;;;;;21.37;100.00;101038.59;5030455;28;20517;-62
2023/08/19 05:38:04;;;;;;;17.02;14.00;;;;;;;21.40;100.00;101043.59;5033535;28;20057;-62
2023/08/19 05:40:32;;;;;;;15.70;12.63;;;;;;;21.44;100.00;101036.91;5033439;28;20057;-62
2023/08/19 05:43:03;;;;;;;15.93;12.63;;;;;;;21.47;100.00;101045.63;5033438;28;20084;-62
2023/08/19 05:45:33;;;;;;;15.23;12.85;;;;;;;21.51;100.00;101041.63;5033242;28;20124;-61
2023/08/19 05:48:03;;;;;;;16.10;12.35;;;;;;;21.52;100.00;101041.44;5032349;28;20524;-62
2023/08/19 05:50:31;;;;;;;14.45;12.13;;;;;;;21.55;100.00;101042.97;5029420;28;20077;-62
2023/08/19 05:53:00;;;;;;;15.00;11.65;;;;;;;21.58;100.00;101029.25;5031916;28;20099;-55
2023/08/19 05:55:29;;;;;;;15.27;11.68;;;;;;;21.61;100.00;101031.63;5033084;28;20136;-61
2023/08/19 05:57:57;;;;;;;16.58;12.45;;;;;;;21.64;100.00;101028.59;5031604;28;20085;-57
2023/08/19 06:00:26;;;;;;;15.93;12.07;;;;;;;21.66;100.00;101031.94;5032575;28;20050;-52
2023/08/19 06:02:54;;;;;;;16.05;12.15;;;;;;;21.68;100.00;101029.09;5032390;28;20099;-54
2023/08/19 06:05:25;;;;;;;16.73;11.65;;;;;;;21.68;100.00;101034.44;5032009;28;20050;-54
2023/08/19 06:07:53;;;;;;;15.77;10.75;;;;;;;21.73;100.00;101032.94;5032434;28;20042;-55
2023/08/19 06:10:22;;;;;;;14.77;11.73;;;;;;;21.71;100.00;101024.25;5031504;28;20056;-56
2023/08/19 06:12:52;;;;;;;13.07;10.50;;;;;;;21.78;100.00;101032.44;5032816;28;20049;-55
2023/08/19 06:15:22;;;;;;;14.07;11.55;;;;;;;21.84;100.00;101022.88;5032574;28;20073;-55
2023/08/19 06:17:50;;;;;;;13.25;9.95;;;;;;;21.87;100.00;101026.06;5032728;28;20042;-54
2023/08/19 06:20:19;;;;;;;14.35;10.68;;;;;;;21.88;100.00;101030.44;5032261;28;20060;-54
2023/08/19 06:22:49;;;;;;;14.27;10.88;;;;;;;21.91;100.00;101038.09;5032364;28;20045;-54
2023/08/19 06:25:17;;;;;;;14.95;10.15;;;;;;;21.96;100.00;101037.59;5032010;28;20063;-54
2023/08/19 06:27:45;;;;;;;14.40;10.38;;;;;;;21.99;100.00;101039.09;5032263;28;20049;-55
2023/08/19 06:30:15;;;;;;;14.15;9.98;;;;;;;22.04;100.00;101039.41;5031864;28;20099;-55
2023/08/19 06:32:44;;;;;;;14.52;9.70;;;;;;;22.06;100.00;101037.38;5032039;28;20136;-54
2023/08/19 06:35:16;;;;;;;13.48;9.43;;;;;;;22.11;100.00;101041.25;5032299;28;20060;-55
2023/08/19 06:37:51;;;;;;;12.48;9.32;;;;;;;22.15;100.00;101056.97;5032217;28;20060;-54
2023/08/19 06:40:21;;;;;;;13.63;9.55;;;;;;;22.28;100.00;101051.91;5032152;28;20049;-55
2023/08/19 06:42:51;;;;;;;14.65;10.05;;;;;;;22.33;100.00;101038.81;5032189;28;20471;-54
2023/08/19 06:45:23;;;;;;;15.10;10.13;;;;;;;22.40;100.00;101030.97;5032092;28;20049;-55
2023/08/19 06:47:54;;;;;;;14.40;9.00;;;;;;;22.44;100.00;101034.97;5032126;28;20041;-55
2023/08/19 06:50:23;;;;;;;13.93;9.07;;;;;;;22.45;100.00;101036.63;5032086;28;20049;-55
2023/08/19 06:52:52;;;;;;;13.80;8.75;;;;;;;22.50;100.00;101041.50;5029827;28;20104;-61
2023/08/19 06:55:21;;;;;;;11.55;8.20;;;;;;;22.53;100.00;101035.78;5026920;28;20120;-61
2023/08/19 06:58:03;;;;;;;13.85;8.63;;;;;;;22.58;100.00;101036.09;5031036;28;20046;-61
2023/08/19 07:00:35;;;;;;;11.73;7.63;;;;;;;22.61;100.00;101046.47;5032026;28;20041;-55
2023/08/19 07:03:04;;;;;;;14.57;8.45;;;;;;;22.66;100.00;101043.25;5031885;28;20104;-54
2023/08/19 07:05:35;;;;;;;13.73;7.90;;;;;;;22.67;100.00;101045.75;5030318;28;20049;-55
2023/08/19 07:08:09;;;;;;;12.98;8.15;;;;;;;22.72;100.00;101059.47;5031777;28;20053;-55
2023/08/19 07:10:38;;;;;;;11.75;7.53;;;;;;;22.79;100.00;101065.78;5031705;28;20550;-55
2023/08/19 07:13:07;;;;;;;12.93;7.82;;;;;;;22.88;100.00;101060.41;5031620;28;20091;-55
2023/08/19 07:15:41;;;;;;;11.70;7.68;;;;;;;22.93;100.00;101058.03;5031616;28;20435;-54
2023/08/19 07:18:14;;;;;;;11.57;7.60;;;;;;;23.00;100.00;101060.84;5031723;28;20056;-61
2023/08/19 07:20:48;;;;;;;12.10;7.03;;;;;;;23.10;100.00;101067.66;5031591;28;20041;-54
2023/08/19 07:23:17;;;;;;;10.65;7.55;;;;;;;23.16;100.00;101074.16;5031576;28;20406;-54
2023/08/19 07:25:45;;;;;;;10.27;7.25;;;;;;;23.26;100.00;101076.63;5031675;28;20124;-55
2023/08/19 07:28:18;;;;;;;11.20;6.72;;;;;;;23.29;100.00;101078.97;5031642;28;20500;-55
2023/08/19 07:30:49;;;;;;;10.02;6.80;;;;;;;23.34;100.00;101076.59;5031572;28;20505;-55
2023/08/19 07:33:17;;;;;;;13.55;7.03;;;;;;;23.41;100.00;101069.47;5031388;28;20053;-54
2023/08/19 07:35:46;;;;;;;12.95;7.07;;;;;;;23.52;100.00;101078.13;5028000;28;20044;-54
2023/08/19 07:38:14;;;;;;;11.85;7.05;;;;;;;23.54;100.00;101078.78;5028800;28;20053;-55
2023/08/19 07:40:42;;;;;;;13.90;7.68;;;;;;;23.68;100.00;101075.28;5031436;28;20107;-55
2023/08/19 07:43:11;;;;;;;13.88;7.63;;;;;;;23.70;100.00;101081.31;5031292;28;20053;-55
2023/08/19 07:45:42;;;;;;;11.23;7.25;;;;;;;23.67;100.00;101081.69;5031291;28;20092;-54
2023/08/19 07:48:11;;;;;;;11.77;6.57;;;;;;;23.78;100.00;101086.63;5031151;28;20052;-54
2023/08/19 07:50:39;;;;;;;10.30;6.80;;;;;;;23.86;100.00;101084.88;5031220;28;20045;-55
2023/08/19 07:53:08;;;;;;;11.52;7.13;;;;;;;23.92;100.00;101086.88;5031229;28;20420;-54
2023/08/19 07:55:36;;;;;;;12.00;7.20;;;;;;;23.98;100.00;101091.50;5031128;28;20084;-55
2023/08/19 07:58:04;;;;;;;10.40;7.30;;;;;;;24.12;100.00;101082.66;5031058;28;20045;-54
2023/08/19 08:00:33;;;;;;;10.10;6.93;;;;;;;24.24;100.00;101090.25;5029686;28;20492;-54
2023/08/19 08:03:01;;;;;;;12.38;6.68;;;;;;;24.47;100.00;101093.69;5031215;28;20065;-54
2023/08/19 08:05:31;;;;;;;10.05;5.80;;;;;;;24.61;100.00;101096.53;5030818;28;20490;-55
2023/08/19 08:07:59;;;;;;;12.63;7.00;;;;;;;24.83;100.00;101100.19;5031117;28;20072;-55
2023/08/19 08:10:27;;;;;;;9.93;6.13;;;;;;;24.89;100.00;101101.28;5030969;28;20099;-54
2023/08/19 08:12:56;;;;;;;12.43;6.00;;;;;;;25.03;100.00;101116.53;5030840;28;20573;-55
2023/08/19 08:15:24;;;;;;;12.70;6.93;;;;;;;25.16;100.00;101115.88;5030647;28;20461;-55
2023/08/19 08:17:52;;;;;;;13.07;6.60;;;;;;;25.27;100.00;101122.63;5031313;28;20054;-55
2023/08/19 08:20:20;;;;;;;11.23;6.07;;;;;;;25.45;100.00;101120.34;5029680;28;20366;-55
2023/08/19 08:22:50;;;;;;;9.98;5.88;;;;;;;25.52;100.00;101108.81;5030996;28;20385;-55
2023/08/19 08:25:18;;;;;;;9.73;6.05;;;;;;;25.61;100.00;101113.03;5031038;28;20053;-55
2023/08/19 08:27:46;;;;;;;10.05;5.40;;;;;;;25.86;100.00;101102.69;5030861;28;20052;-54
2023/08/19 08:30:14;;;;;;;11.30;5.82;;;;;;;26.08;100.00;101114.31;5029752;28;20894;-55
2023/08/19 08:32:43;;;;;;;9.85;6.05;;;;;;;26.11;100.00;101116.59;5031019;28;20045;-54
2023/08/19 08:35:11;;;;;;;11.55;6.10;;;;;;;26.21;100.00;101128.91;5031031;28;20488;-55
2023/08/19 08:37:39;;;;;;;9.00;5.30;;;;;;;26.31;100.00;101140.13;5030718;28;20069;-53
2023/08/19 08:40:09;;;;;;;9.57;5.65;;;;;;;26.34;100.00;101136.22;5031150;28;20046;-60
2023/08/19 08:42:38;;;;;;;11.55;6.00;;;;;;;26.28;100.00;101143.25;5030923;28;20496;-60
2023/08/19 08:45:08;;;;;;;10.95;5.82;;;;;;;26.55;100.00;101140.72;5029868;28;20045;-61
2023/08/19 08:47:38;;;;;;;12.80;6.25;;;;;;;26.68;100.00;101131.84;5027713;28;20128;-60
2023/08/19 08:50:08;;;;;;;10.23;5.57;;;;;;;26.76;100.00;101137.94;5032523;28;20050;-60
2023/08/19 08:52:40;;;;;;;9.30;5.55;;;;;;;26.84;100.00;101141.50;5034511;28;20120;-60
2023/08/19 08:55:10;;;;;;;10.40;6.00;;;;;;;26.83;100.00;101132.56;5032820;28;20055;-54
2023/08/19 08:57:38;;;;;;;9.07;5.47;;;;;;;26.74;100.00;101136.50;5034203;28;20448;-55
2023/08/19 09:00:11;;;;;;;10.25;5.75;;;;;;;26.78;100.00;101141.28;5034124;28;20045;-55
2023/08/19 09:02:45;;;;;;;10.55;6.43;;;;;;;26.90;100.00;101127.19;5034162;28;20140;-55
2023/08/19 09:05:15;;;;;;;9.27;5.80;;;;;;;26.91;100.00;101132.41;5033722;28;20048;-55
2023/08/19 09:07:45;;;;;;;11.50;5.97;;;;;;;27.04;100.00;101122.69;5033831;28;20444;-53
2023/08/19 09:10:17;;;;;;;9.13;5.72;;;;;;;26.95;100.00;101143.63;5034230;28;20123;-55
2023/08/19 09:12:51;;;;;;;9.90;6.22;;;;;;;27.01;100.00;101158.19;5034199;28;20048;-55
2023/08/19 09:15:20;;;;;;;8.80;5.65;;;;;;;27.03;100.00;101164.22;5034138;28;20048;-54
2023/08/19 09:17:50;;;;;;;9.50;6.07;;;;;;;27.06;100.00;101151.13;5033955;28;20037;-55
2023/08/19 09:20:19;;;;;;;11.13;6.45;;;;;;;26.92;100.00;101176.41;5034064;28;20125;-55
2023/08/19 09:22:47;;;;;;;11.05;6.53;;;;;;;27.07;100.00;101179.78;5033752;28;20046;-54
2023/08/19 09:25:19;;;;;;;11.80;7.28;;;;;;;27.01;100.00;101179.75;5033739;28;20443;-55
2023/08/19 09:27:52;;;;;;;10.38;7.10;;;;;;;26.99;100.00;101188.06;5033479;28;20088;-55
2023/08/19 09:30:20;;;;;;;11.77;6.80;;;;;;;27.03;100.00;101189.31;5034114;28;20092;-55
2023/08/19 09:32:49;;;;;;;11.07;7.57;;;;;;;27.01;100.00;101191.41;5032362;28;20221;-55
2023/08/19 09:35:17;;;;;;;13.27;7.10;;;;;;;27.07;100.00;101190.59;5033408;28;20511;-55
2023/08/19 09:37:45;;;;;;;9.27;7.13;;;;;;;26.90;100.00;101183.88;5033418;28;20053;-60
2023/08/19 09:40:21;;;;;;;11.77;7.28;;;;;;;26.86;100.00;101185.28;5033515;28;20053;-61
2023/08/19 09:42:50;;;;;;;12.48;7.20;;;;;;;26.79;100.00;101183.41;5033486;28;20048;-61
2023/08/19 09:45:19;;;;;;;15.80;8.23;;;;;;;26.67;100.00;101182.28;5032110;28;20100;-62
2023/08/19 09:47:49;;;;;;;12.25;8.48;;;;;;;26.62;100.00;101206.31;5033639;28;20053;-62
2023/08/19 09:50:19;;;;;;;11.88;8.60;;;;;;;26.56;100.00;101220.56;5033334;28;20056;-62
2023/08/19 09:52:55;;;;;;;12.93;8.73;;;;;;;26.49;100.00;101229.44;5030981;28;20496;-62
2023/08/19 09:55:24;;;;;;;14.25;10.25;;;;;;;26.17;100.00;101236.25;5028166;28;20045;-62
2023/08/19 09:57:54;;;;;;;12.68;9.63;;;;;;;26.11;100.00;101235.16;5032893;28;20104;-62
2023/08/19 10:00:23;;;;;;;13.07;9.48;;;;;;;26.10;100.00;101228.09;5032851;28;20508;-61
2023/08/19 10:02:52;;;;;;;13.82;9.80;;;;;;;26.22;100.00;101219.47;5033276;28;20080;-62
2023/08/19 10:05:20;;;;;;;12.40;9.25;;;;;;;26.27;100.00;101220.59;5033168;28;20084;-56
2023/08/19 10:07:53;;;;;;;15.27;9.63;;;;;;;26.36;100.00;101217.75;5032901;28;20049;-56
2023/08/19 10:10:22;;;;;;;12.75;10.15;;;;;;;26.41;100.00;101221.50;5033014;28;20584;-55
2023/08/19 10:12:52;;;;;;;15.07;10.23;;;;;;;26.64;100.00;101220.41;5032967;28;20095;-55
2023/08/19 10:15:23;;;;;;;11.73;9.05;;;;;;;26.85;100.00;101213.31;5032595;28;20056;-55
2023/08/19 10:17:55;;;;;;;14.18;9.18;;;;;;;26.98;100.00;101210.66;5032458;28;20049;-55
2023/08/19 10:20:27;;;;;;;13.65;9.75;;;;;;;27.13;100.00;101214.09;5032290;28;20053;-56
2023/08/19 10:23:01;;;;;;;13.00;9.73;;;;;;;27.37;100.00;101208.38;5032477;28;20492;-62
2023/08/19 10:25:30;;;;;;;11.45;9.43;;;;;;;27.44;100.00;101220.84;5032208;28;20076;-61
2023/08/19 10:28:11;;;;;;;12.05;9.50;;;;;;;27.47;100.00;101231.28;5032435;28;20049;-55
2023/08/19 10:30:41;;;;;;;15.40;10.70;;;;;;;27.63;100.00;101234.63;5032341;28;20053;-56
2023/08/19 10:33:29;;;;;;;13.52;9.85;;;;;;;27.72;100.00;101232.56;5032353;28;20045;-55
2023/08/19 10:35:59;;;;;;;11.73;9.57;;;;;;;27.86;100.00;101236.16;5032379;28;20049;-61
2023/08/19 10:38:41;;;;;;;12.98;10.20;;;;;;;28.19;100.00;101238.91;5032293;28;20133;-61
2023/08/19 10:41:33;;;;;;;14.07;10.85;;;;;;;28.42;100.00;101243.06;5028983;28;20430;-61
2023/08/19 10:44:03;;;;;;;15.43;11.30;;;;;;;28.87;100.00;101245.09;5029173;28;20065;-61
2023/08/19 10:46:34;;;;;;;18.63;11.32;;;;;;;29.08;100.00;101249.41;5032199;28;20053;-56
2023/08/19 10:49:04;;;;;;;13.90;10.55;;;;;;;29.51;100.00;101246.13;5032113;28;20049;-53
2023/08/19 10:51:50;;;;;;;14.60;11.55;;;;;;;29.91;100.00;101247.78;5032521;28;20152;-55
2023/08/19 10:54:38;;;;;;;15.02;10.82;;;;;;;30.21;100.00;101255.28;5031660;28;20044;-61
2023/08/19 10:57:11;;;;;;;14.73;11.63;;;;;;;30.10;100.00;101260.38;5031543;28;20080;-61
2023/08/19 10:59:41;;;;;;;14.32;11.18;;;;;;;30.33;100.00;101264.38;5027862;28;20058;-61
2023/08/19 11:02:11;;;;;;;14.82;12.18;;;;;;;30.56;100.00;101261.06;5028126;28;20049;-60
2023/08/19 11:04:41;;;;;;;14.32;10.13;;;;;;;31.00;100.00;101264.59;5030637;28;20504;-56
2023/08/19 11:07:10;;;;;;;13.75;11.18;;;;;;;30.88;100.00;101270.97;5028048;28;20053;-55
2023/08/19 11:09:41;;;;;;;13.07;11.57;;;;;;;30.72;100.00;101278.66;5026443;28;20045;-56
2023/08/19 11:12:10;;;;;;;16.13;12.10;;;;;;;30.79;100.00;101267.75;5029952;28;20140;-55
2023/08/19 11:14:38;;;;;;;16.15;12.93;;;;;;;30.48;100.00;101269.50;5031521;28;20468;-55
2023/08/19 11:17:10;;;;;;;16.55;11.25;;;;;;;30.93;100.00;101285.53;5031015;28;20034;-56